sensor_id;sensor_type;location;lat;lon;timestamp;P1;durP1;ratioP1;P2;durP2;ratioP2
22138;SDS011;25815;52.582;13.408;2023-02-04T00:00:12;1.50;;;0.80;;
22138;SDS011;25815;52.582;13.408;2023-02-04T00:02:39;2.90;;;1.00;;
22138;SDS011;25815;52.582;13.408;2023-02-04T00:05:05;2.08;;;0.90;;
22138;SDS011;25815;52.582;13.408;2023-02-04T00:07:32;2.08;;;1.20;;
22138;SDS011;25815;52.582;13.408;2023-02-04T00:09:57;2.00;;;1.30;;
22138;SDS011;25815;52.582;13.408;2023-02-04T00:12:23;1.42;;;0.95;;
22138;SDS011;25815;52.582;13.408;2023-02-04T00:14:49;2.35;;;1.08;;
22138;SDS011;25815;52.582;13.408;2023-02-04T00:17:15;2.88;;;1.25;;
22138;SDS011;25815;52.582;13.408;2023-02-04T00:19:41;2.42;;;1.10;;
22138;SDS011;25815;52.582;13.408;2023-02-04T00:22:07;1.23;;;0.90;;
22138;SDS011;25815;52.582;13.408;2023-02-04T00:24:34;1.48;;;1.08;;
22138;SDS011;25815;52.582;13.408;2023-02-04T00:27:00;2.25;;;1.05;;
22138;SDS011;25815;52.582;13.408;2023-02-04T00:29:26;2.22;;;0.93;;
22138;SDS011;25815;52.582;13.408;2023-02-04T00:31:52;2.13;;;1.00;;
22138;SDS011;25815;52.582;13.408;2023-02-04T00:34:18;3.28;;;1.05;;
22138;SDS011;25815;52.582;13.408;2023-02-04T00:36:44;0.95;;;0.68;;
22138;SDS011;25815;52.582;13.408;2023-02-04T00:39:10;1.58;;;0.70;;
22138;SDS011;25815;52.582;13.408;2023-02-04T00:41:35;3.42;;;1.42;;
22138;SDS011;25815;52.582;13.408;2023-02-04T00:44:01;2.60;;;1.10;;
22138;SDS011;25815;52.582;13.408;2023-02-04T00:46:27;2.28;;;1.10;;
22138;SDS011;25815;52.582;13.408;2023-02-04T00:48:53;2.58;;;0.93;;
22138;SDS011;25815;52.582;13.408;2023-02-04T00:51:19;3.63;;;1.27;;
22138;SDS011;25815;52.582;13.408;2023-02-04T00:53:45;1.92;;;0.82;;
22138;SDS011;25815;52.582;13.408;2023-02-04T00:56:11;1.63;;;0.70;;
22138;SDS011;25815;52.582;13.408;2023-02-04T00:58:37;1.45;;;0.80;;
22138;SDS011;25815;52.582;13.408;2023-02-04T01:01:03;4.13;;;0.80;;
22138;SDS011;25815;52.582;13.408;2023-02-04T01:03:29;2.15;;;1.00;;
22138;SDS011;25815;52.582;13.408;2023-02-04T01:05:55;1.33;;;0.82;;
22138;SDS011;25815;52.582;13.408;2023-02-04T01:08:21;3.05;;;1.02;;
22138;SDS011;25815;52.582;13.408;2023-02-04T01:10:47;1.98;;;0.60;;
22138;SDS011;25815;52.582;13.408;2023-02-04T01:13:13;4.05;;;1.00;;
22138;SDS011;25815;52.582;13.408;2023-02-04T01:15:39;2.63;;;1.10;;
22138;SDS011;25815;52.582;13.408;2023-02-04T01:18:05;4.72;;;0.98;;
22138;SDS011;25815;52.582;13.408;2023-02-04T01:20:30;1.85;;;0.70;;
22138;SDS011;25815;52.582;13.408;2023-02-04T01:22:56;1.58;;;0.80;;
22138;SDS011;25815;52.582;13.408;2023-02-04T01:25:22;3.00;;;1.08;;
22138;SDS011;25815;52.582;13.408;2023-02-04T01:27:48;1.27;;;0.70;;
22138;SDS011;25815;52.582;13.408;2023-02-04T01:30:14;3.13;;;0.75;;
22138;SDS011;25815;52.582;13.408;2023-02-04T01:32:40;1.90;;;0.98;;
22138;SDS011;25815;52.582;13.408;2023-02-04T01:35:06;2.28;;;0.70;;
22138;SDS011;25815;52.582;13.408;2023-02-04T01:37:33;2.60;;;0.95;;
22138;SDS011;25815;52.582;13.408;2023-02-04T01:39:59;1.27;;;0.80;;
22138;SDS011;25815;52.582;13.408;2023-02-04T01:42:25;4.75;;;0.93;;
22138;SDS011;25815;52.582;13.408;2023-02-04T01:44:51;2.47;;;0.70;;
22138;SDS011;25815;52.582;13.408;2023-02-04T01:47:17;2.40;;;0.70;;
22138;SDS011;25815;52.582;13.408;2023-02-04T01:49:43;0.80;;;0.38;;
22138;SDS011;25815;52.582;13.408;2023-02-04T01:52:10;3.08;;;0.77;;
22138;SDS011;25815;52.582;13.408;2023-02-04T01:54:37;3.40;;;0.52;;
22138;SDS011;25815;52.582;13.408;2023-02-04T01:57:03;3.80;;;0.70;;
22138;SDS011;25815;52.582;13.408;2023-02-04T01:59:29;2.22;;;0.38;;
22138;SDS011;25815;52.582;13.408;2023-02-04T02:01:55;1.13;;;0.40;;
22138;SDS011;25815;52.582;13.408;2023-02-04T02:04:28;1.73;;;0.50;;
22138;SDS011;25815;52.582;13.408;2023-02-04T02:06:56;2.95;;;0.60;;
22138;SDS011;25815;52.582;13.408;2023-02-04T02:09:23;1.67;;;0.70;;
22138;SDS011;25815;52.582;13.408;2023-02-04T02:11:49;2.15;;;0.70;;
22138;SDS011;25815;52.582;13.408;2023-02-04T02:14:15;3.47;;;0.70;;
22138;SDS011;25815;52.582;13.408;2023-02-04T02:16:41;1.73;;;0.60;;
22138;SDS011;25815;52.582;13.408;2023-02-04T02:19:08;2.97;;;0.70;;
22138;SDS011;25815;52.582;13.408;2023-02-04T02:21:38;3.22;;;0.50;;
22138;SDS011;25815;52.582;13.408;2023-02-04T02:24:27;2.80;;;0.50;;
22138;SDS011;25815;52.582;13.408;2023-02-04T02:26:54;1.42;;;0.50;;
22138;SDS011;25815;52.582;13.408;2023-02-04T02:29:21;4.05;;;0.73;;
22138;SDS011;25815;52.582;13.408;2023-02-04T02:31:47;1.92;;;0.50;;
22138;SDS011;25815;52.582;13.408;2023-02-04T02:34:13;3.15;;;0.80;;
22138;SDS011;25815;52.582;13.408;2023-02-04T02:36:39;1.50;;;0.60;;
22138;SDS011;25815;52.582;13.408;2023-02-04T02:39:05;4.13;;;0.70;;
22138;SDS011;25815;52.582;13.408;2023-02-04T02:41:31;2.08;;;0.60;;
22138;SDS011;25815;52.582;13.408;2023-02-04T02:43:57;2.65;;;0.65;;
22138;SDS011;25815;52.582;13.408;2023-02-04T02:46:23;2.55;;;0.60;;
22138;SDS011;25815;52.582;13.408;2023-02-04T02:48:49;2.95;;;0.90;;
22138;SDS011;25815;52.582;13.408;2023-02-04T02:51:15;2.95;;;0.80;;
22138;SDS011;25815;52.582;13.408;2023-02-04T02:53:48;1.50;;;0.50;;
22138;SDS011;25815;52.582;13.408;2023-02-04T02:56:14;4.57;;;0.60;;
22138;SDS011;25815;52.582;13.408;2023-02-04T02:58:40;5.15;;;0.68;;
22138;SDS011;25815;52.582;13.408;2023-02-04T03:01:06;2.40;;;0.68;;
22138;SDS011;25815;52.582;13.408;2023-02-04T03:03:51;3.20;;;0.60;;
22138;SDS011;25815;52.582;13.408;2023-02-04T03:06:19;2.90;;;0.63;;
22138;SDS011;25815;52.582;13.408;2023-02-04T03:08:47;1.45;;;0.52;;
22138;SDS011;25815;52.582;13.408;2023-02-04T03:11:14;1.27;;;0.63;;
22138;SDS011;25815;52.582;13.408;2023-02-04T03:13:40;4.80;;;1.08;;
22138;SDS011;25815;52.582;13.408;2023-02-04T03:16:06;2.92;;;0.50;;
22138;SDS011;25815;52.582;13.408;2023-02-04T03:18:33;1.92;;;0.60;;
22138;SDS011;25815;52.582;13.408;2023-02-04T03:20:59;3.00;;;0.60;;
22138;SDS011;25815;52.582;13.408;2023-02-04T03:23:25;3.65;;;0.75;;
22138;SDS011;25815;52.582;13.408;2023-02-04T03:25:51;4.32;;;0.50;;
22138;SDS011;25815;52.582;13.408;2023-02-04T03:28:17;2.17;;;0.52;;
22138;SDS011;25815;52.582;13.408;2023-02-04T03:30:43;2.78;;;0.50;;
22138;SDS011;25815;52.582;13.408;2023-02-04T03:33:15;2.03;;;0.70;;
22138;SDS011;25815;52.582;13.408;2023-02-04T03:35:41;3.22;;;0.70;;
22138;SDS011;25815;52.582;13.408;2023-02-04T03:38:07;2.97;;;0.77;;
22138;SDS011;25815;52.582;13.408;2023-02-04T03:40:33;1.30;;;0.60;;
22138;SDS011;25815;52.582;13.408;2023-02-04T03:42:59;3.35;;;0.80;;
22138;SDS011;25815;52.582;13.408;2023-02-04T03:45:25;4.28;;;0.98;;
22138;SDS011;25815;52.582;13.408;2023-02-04T03:47:51;3.83;;;0.80;;
22138;SDS011;25815;52.582;13.408;2023-02-04T03:50:17;1.70;;;0.80;;
22138;SDS011;25815;52.582;13.408;2023-02-04T03:52:43;1.88;;;0.60;;
22138;SDS011;25815;52.582;13.408;2023-02-04T03:55:09;2.53;;;0.70;;
22138;SDS011;25815;52.582;13.408;2023-02-04T03:57:35;2.08;;;0.60;;
22138;SDS011;25815;52.582;13.408;2023-02-04T04:00:01;2.38;;;0.70;;
22138;SDS011;25815;52.582;13.408;2023-02-04T04:02:27;0.82;;;0.38;;
22138;SDS011;25815;52.582;13.408;2023-02-04T04:04:53;5.22;;;0.88;;
22138;SDS011;25815;52.582;13.408;2023-02-04T04:07:19;3.53;;;0.60;;
22138;SDS011;25815;52.582;13.408;2023-02-04T04:09:45;2.85;;;0.50;;
22138;SDS011;25815;52.582;13.408;2023-02-04T04:12:10;1.77;;;0.60;;
22138;SDS011;25815;52.582;13.408;2023-02-04T04:14:36;5.72;;;0.70;;
22138;SDS011;25815;52.582;13.408;2023-02-04T04:17:02;2.22;;;0.35;;
22138;SDS011;25815;52.582;13.408;2023-02-04T04:19:28;4.43;;;0.65;;
22138;SDS011;25815;52.582;13.408;2023-02-04T04:21:56;6.63;;;0.50;;
22138;SDS011;25815;52.582;13.408;2023-02-04T04:24:22;3.00;;;0.60;;
22138;SDS011;25815;52.582;13.408;2023-02-04T04:26:47;3.05;;;0.52;;
22138;SDS011;25815;52.582;13.408;2023-02-04T04:29:13;2.58;;;0.75;;
22138;SDS011;25815;52.582;13.408;2023-02-04T04:31:39;5.38;;;0.85;;
22138;SDS011;25815;52.582;13.408;2023-02-04T04:34:05;1.60;;;0.50;;
22138;SDS011;25815;52.582;13.408;2023-02-04T04:36:31;1.10;;;0.50;;
22138;SDS011;25815;52.582;13.408;2023-02-04T04:38:57;2.40;;;0.80;;
22138;SDS011;25815;52.582;13.408;2023-02-04T04:41:23;1.98;;;0.70;;
22138;SDS011;25815;52.582;13.408;2023-02-04T04:43:49;2.53;;;0.90;;
22138;SDS011;25815;52.582;13.408;2023-02-04T04:46:15;3.38;;;0.70;;
22138;SDS011;25815;52.582;13.408;2023-02-04T04:48:41;3.78;;;0.77;;
22138;SDS011;25815;52.582;13.408;2023-02-04T04:51:07;8.23;;;1.13;;
22138;SDS011;25815;52.582;13.408;2023-02-04T04:53:33;4.40;;;0.75;;
22138;SDS011;25815;52.582;13.408;2023-02-04T04:55:59;3.72;;;0.70;;
22138;SDS011;25815;52.582;13.408;2023-02-04T04:58:25;2.22;;;0.70;;
22138;SDS011;25815;52.582;13.408;2023-02-04T05:00:50;2.97;;;0.47;;
22138;SDS011;25815;52.582;13.408;2023-02-04T05:03:16;2.28;;;0.60;;
22138;SDS011;25815;52.582;13.408;2023-02-04T05:05:42;1.65;;;0.60;;
22138;SDS011;25815;52.582;13.408;2023-02-04T05:08:08;4.28;;;0.60;;
22138;SDS011;25815;52.582;13.408;2023-02-04T05:10:37;2.65;;;0.57;;
22138;SDS011;25815;52.582;13.408;2023-02-04T05:13:03;1.38;;;0.63;;
22138;SDS011;25815;52.582;13.408;2023-02-04T05:15:29;2.13;;;0.60;;
22138;SDS011;25815;52.582;13.408;2023-02-04T05:17:55;2.75;;;0.60;;
22138;SDS011;25815;52.582;13.408;2023-02-04T05:20:22;1.48;;;0.50;;
22138;SDS011;25815;52.582;13.408;2023-02-04T05:22:48;4.05;;;0.60;;
22138;SDS011;25815;52.582;13.408;2023-02-04T05:25:14;2.22;;;0.95;;
22138;SDS011;25815;52.582;13.408;2023-02-04T05:27:41;4.75;;;0.68;;
22138;SDS011;25815;52.582;13.408;2023-02-04T05:30:09;5.80;;;0.90;;
22138;SDS011;25815;52.582;13.408;2023-02-04T05:32:35;4.35;;;0.77;;
22138;SDS011;25815;52.582;13.408;2023-02-04T05:35:01;3.08;;;0.85;;
22138;SDS011;25815;52.582;13.408;2023-02-04T05:37:27;4.22;;;0.90;;
22138;SDS011;25815;52.582;13.408;2023-02-04T05:39:53;4.30;;;0.70;;
22138;SDS011;25815;52.582;13.408;2023-02-04T05:42:18;2.45;;;0.50;;
22138;SDS011;25815;52.582;13.408;2023-02-04T05:44:44;1.27;;;0.50;;
22138;SDS011;25815;52.582;13.408;2023-02-04T05:47:10;2.70;;;0.80;;
22138;SDS011;25815;52.582;13.408;2023-02-04T05:49:36;4.18;;;0.80;;
22138;SDS011;25815;52.582;13.408;2023-02-04T05:52:02;3.60;;;0.70;;
22138;SDS011;25815;52.582;13.408;2023-02-04T05:54:28;3.97;;;0.88;;
22138;SDS011;25815;52.582;13.408;2023-02-04T05:56:54;3.72;;;0.90;;
22138;SDS011;25815;52.582;13.408;2023-02-04T05:59:20;1.00;;;0.52;;
22138;SDS011;25815;52.582;13.408;2023-02-04T06:01:46;4.75;;;0.80;;
22138;SDS011;25815;52.582;13.408;2023-02-04T06:04:12;4.30;;;0.90;;
22138;SDS011;25815;52.582;13.408;2023-02-04T06:06:40;4.28;;;1.00;;
22138;SDS011;25815;52.582;13.408;2023-02-04T06:09:06;3.28;;;0.80;;
22138;SDS011;25815;52.582;13.408;2023-02-04T06:11:32;3.53;;;0.90;;
22138;SDS011;25815;52.582;13.408;2023-02-04T06:13:58;4.80;;;1.30;;
22138;SDS011;25815;52.582;13.408;2023-02-04T06:16:24;3.10;;;1.10;;
22138;SDS011;25815;52.582;13.408;2023-02-04T06:18:50;2.55;;;0.90;;
22138;SDS011;25815;52.582;13.408;2023-02-04T06:21:15;5.45;;;1.10;;
22138;SDS011;25815;52.582;13.408;2023-02-04T06:23:41;5.30;;;1.00;;
22138;SDS011;25815;52.582;13.408;2023-02-04T06:26:07;4.13;;;0.82;;
22138;SDS011;25815;52.582;13.408;2023-02-04T06:28:33;5.32;;;0.93;;
22138;SDS011;25815;52.582;13.408;2023-02-04T06:30:59;3.42;;;1.08;;
22138;SDS011;25815;52.582;13.408;2023-02-04T06:33:25;3.33;;;1.00;;
22138;SDS011;25815;52.582;13.408;2023-02-04T06:35:51;7.22;;;1.20;;
22138;SDS011;25815;52.582;13.408;2023-02-04T06:38:17;4.00;;;0.88;;
22138;SDS011;25815;52.582;13.408;2023-02-04T06:40:43;3.45;;;1.00;;
22138;SDS011;25815;52.582;13.408;2023-02-04T06:43:13;4.00;;;1.00;;
22138;SDS011;25815;52.582;13.408;2023-02-04T06:45:39;4.05;;;0.95;;
22138;SDS011;25815;52.582;13.408;2023-02-04T06:48:05;3.42;;;1.25;;
22138;SDS011;25815;52.582;13.408;2023-02-04T06:50:30;3.80;;;1.17;;
22138;SDS011;25815;52.582;13.408;2023-02-04T06:52:56;3.60;;;0.93;;
22138;SDS011;25815;52.582;13.408;2023-02-04T06:55:22;3.85;;;0.98;;
22138;SDS011;25815;52.582;13.408;2023-02-04T06:57:48;4.55;;;1.02;;
22138;SDS011;25815;52.582;13.408;2023-02-04T07:00:14;3.65;;;0.90;;
22138;SDS011;25815;52.582;13.408;2023-02-04T07:02:40;3.75;;;0.90;;
22138;SDS011;25815;52.582;13.408;2023-02-04T07:05:06;3.72;;;1.25;;
22138;SDS011;25815;52.582;13.408;2023-02-04T07:07:32;2.67;;;0.90;;
22138;SDS011;25815;52.582;13.408;2023-02-04T07:09:59;3.65;;;1.20;;
22138;SDS011;25815;52.582;13.408;2023-02-04T07:12:25;4.38;;;1.40;;
22138;SDS011;25815;52.582;13.408;2023-02-04T07:14:51;8.05;;;1.83;;
22138;SDS011;25815;52.582;13.408;2023-02-04T07:17:17;3.33;;;1.02;;
22138;SDS011;25815;52.582;13.408;2023-02-04T07:19:43;3.00;;;1.30;;
22138;SDS011;25815;52.582;13.408;2023-02-04T07:22:09;5.07;;;1.35;;
22138;SDS011;25815;52.582;13.408;2023-02-04T07:24:35;4.40;;;1.77;;
22138;SDS011;25815;52.582;13.408;2023-02-04T07:27:01;5.65;;;1.10;;
22138;SDS011;25815;52.582;13.408;2023-02-04T07:29:27;4.43;;;1.70;;
22138;SDS011;25815;52.582;13.408;2023-02-04T07:31:53;3.35;;;1.55;;
22138;SDS011;25815;52.582;13.408;2023-02-04T07:34:19;4.85;;;1.50;;
22138;SDS011;25815;52.582;13.408;2023-02-04T07:36:45;6.80;;;1.98;;
22138;SDS011;25815;52.582;13.408;2023-02-04T07:39:11;5.30;;;1.90;;
22138;SDS011;25815;52.582;13.408;2023-02-04T07:41:37;5.55;;;1.52;;
22138;SDS011;25815;52.582;13.408;2023-02-04T07:44:03;4.10;;;1.48;;
22138;SDS011;25815;52.582;13.408;2023-02-04T07:46:29;3.63;;;1.73;;
22138;SDS011;25815;52.582;13.408;2023-02-04T07:48:55;4.25;;;1.67;;
22138;SDS011;25815;52.582;13.408;2023-02-04T07:51:21;5.25;;;2.28;;
22138;SDS011;25815;52.582;13.408;2023-02-04T07:53:47;5.90;;;2.22;;
22138;SDS011;25815;52.582;13.408;2023-02-04T07:56:12;5.07;;;1.67;;
22138;SDS011;25815;52.582;13.408;2023-02-04T07:58:38;4.22;;;1.80;;
22138;SDS011;25815;52.582;13.408;2023-02-04T08:01:04;3.22;;;1.40;;
22138;SDS011;25815;52.582;13.408;2023-02-04T08:03:30;8.20;;;2.40;;
22138;SDS011;25815;52.582;13.408;2023-02-04T08:05:56;4.82;;;1.35;;
22138;SDS011;25815;52.582;13.408;2023-02-04T08:08:22;4.70;;;1.40;;
22138;SDS011;25815;52.582;13.408;2023-02-04T08:10:48;7.35;;;1.35;;
22138;SDS011;25815;52.582;13.408;2023-02-04T08:13:14;4.35;;;1.30;;
22138;SDS011;25815;52.582;13.408;2023-02-04T08:15:40;3.47;;;1.42;;
22138;SDS011;25815;52.582;13.408;2023-02-04T08:18:06;6.05;;;1.63;;
22138;SDS011;25815;52.582;13.408;2023-02-04T08:20:32;5.60;;;2.00;;
22138;SDS011;25815;52.582;13.408;2023-02-04T08:22:58;6.35;;;1.60;;
22138;SDS011;25815;52.582;13.408;2023-02-04T08:25:24;7.07;;;1.75;;
22138;SDS011;25815;52.582;13.408;2023-02-04T08:27:50;2.88;;;1.48;;
22138;SDS011;25815;52.582;13.408;2023-02-04T08:30:16;6.05;;;1.77;;
22138;SDS011;25815;52.582;13.408;2023-02-04T08:32:42;5.90;;;1.63;;
22138;SDS011;25815;52.582;13.408;2023-02-04T08:35:08;7.25;;;1.60;;
22138;SDS011;25815;52.582;13.408;2023-02-04T08:37:34;5.10;;;1.77;;
22138;SDS011;25815;52.582;13.408;2023-02-04T08:40:00;5.07;;;1.90;;
22138;SDS011;25815;52.582;13.408;2023-02-04T08:42:26;5.00;;;1.60;;
22138;SDS011;25815;52.582;13.408;2023-02-04T08:44:52;6.43;;;1.90;;
22138;SDS011;25815;52.582;13.408;2023-02-04T08:47:18;6.22;;;1.38;;
22138;SDS011;25815;52.582;13.408;2023-02-04T08:49:44;5.30;;;2.13;;
22138;SDS011;25815;52.582;13.408;2023-02-04T08:52:09;2.33;;;1.10;;
22138;SDS011;25815;52.582;13.408;2023-02-04T08:54:35;7.68;;;1.17;;
22138;SDS011;25815;52.582;13.408;2023-02-04T08:57:01;2.53;;;1.00;;
22138;SDS011;25815;52.582;13.408;2023-02-04T08:59:27;2.10;;;0.77;;
22138;SDS011;25815;52.582;13.408;2023-02-04T09:01:53;5.10;;;0.82;;
22138;SDS011;25815;52.582;13.408;2023-02-04T09:04:20;2.10;;;1.00;;
22138;SDS011;25815;52.582;13.408;2023-02-04T09:06:46;2.88;;;0.80;;
22138;SDS011;25815;52.582;13.408;2023-02-04T09:09:12;4.15;;;1.00;;
22138;SDS011;25815;52.582;13.408;2023-02-04T09:11:38;1.65;;;0.73;;
22138;SDS011;25815;52.582;13.408;2023-02-04T09:14:05;3.38;;;0.80;;
22138;SDS011;25815;52.582;13.408;2023-02-04T09:16:31;2.33;;;0.93;;
22138;SDS011;25815;52.582;13.408;2023-02-04T09:18:57;1.50;;;0.57;;
22138;SDS011;25815;52.582;13.408;2023-02-04T09:21:23;3.85;;;0.75;;
22138;SDS011;25815;52.582;13.408;2023-02-04T09:23:49;1.17;;;0.60;;
22138;SDS011;25815;52.582;13.408;2023-02-04T09:26:15;8.95;;;1.05;;
22138;SDS011;25815;52.582;13.408;2023-02-04T09:28:41;5.05;;;0.55;;
22138;SDS011;25815;52.582;13.408;2023-02-04T09:31:07;3.40;;;0.95;;
22138;SDS011;25815;52.582;13.408;2023-02-04T09:33:34;1.42;;;0.60;;
22138;SDS011;25815;52.582;13.408;2023-02-04T09:36:00;5.50;;;0.70;;
22138;SDS011;25815;52.582;13.408;2023-02-04T09:38:26;7.63;;;0.60;;
22138;SDS011;25815;52.582;13.408;2023-02-04T09:40:54;3.95;;;0.80;;
22138;SDS011;25815;52.582;13.408;2023-02-04T09:43:21;2.70;;;0.60;;
22138;SDS011;25815;52.582;13.408;2023-02-04T09:45:49;1.73;;;0.60;;
22138;SDS011;25815;52.582;13.408;2023-02-04T09:48:15;2.92;;;0.68;;
22138;SDS011;25815;52.582;13.408;2023-02-04T09:50:41;4.50;;;1.00;;
22138;SDS011;25815;52.582;13.408;2023-02-04T09:53:08;2.13;;;0.63;;
22138;SDS011;25815;52.582;13.408;2023-02-04T09:55:39;0.77;;;0.60;;
22138;SDS011;25815;52.582;13.408;2023-02-04T09:58:23;3.08;;;0.60;;
22138;SDS011;25815;52.582;13.408;2023-02-04T10:00:55;2.42;;;0.68;;
22138;SDS011;25815;52.582;13.408;2023-02-04T10:03:22;6.63;;;0.70;;
22138;SDS011;25815;52.582;13.408;2023-02-04T10:05:48;1.73;;;0.60;;
22138;SDS011;25815;52.582;13.408;2023-02-04T10:08:16;3.17;;;0.70;;
22138;SDS011;25815;52.582;13.408;2023-02-04T10:10:43;3.15;;;0.68;;
22138;SDS011;25815;52.582;13.408;2023-02-04T10:13:16;3.03;;;0.73;;
22138;SDS011;25815;52.582;13.408;2023-02-04T10:15:43;4.53;;;0.50;;
22138;SDS011;25815;52.582;13.408;2023-02-04T10:18:10;3.25;;;0.57;;
22138;SDS011;25815;52.582;13.408;2023-02-04T10:20:37;2.50;;;0.50;;
22138;SDS011;25815;52.582;13.408;2023-02-04T10:23:04;2.63;;;0.70;;
22138;SDS011;25815;52.582;13.408;2023-02-04T10:25:30;2.47;;;0.60;;
22138;SDS011;25815;52.582;13.408;2023-02-04T10:27:57;2.45;;;0.40;;
22138;SDS011;25815;52.582;13.408;2023-02-04T10:30:25;2.78;;;0.40;;
22138;SDS011;25815;52.582;13.408;2023-02-04T10:32:51;2.92;;;0.50;;
22138;SDS011;25815;52.582;13.408;2023-02-04T10:35:18;2.20;;;0.50;;
22138;SDS011;25815;52.582;13.408;2023-02-04T10:37:44;3.08;;;0.50;;
22138;SDS011;25815;52.582;13.408;2023-02-04T10:42:55;2.47;;;0.43;;
22138;SDS011;25815;52.582;13.408;2023-02-04T10:45:25;1.75;;;0.50;;
22138;SDS011;25815;52.582;13.408;2023-02-04T10:47:52;1.85;;;0.50;;
22138;SDS011;25815;52.582;13.408;2023-02-04T10:50:20;2.30;;;0.45;;
22138;SDS011;25815;52.582;13.408;2023-02-04T10:52:48;2.17;;;0.50;;
22138;SDS011;25815;52.582;13.408;2023-02-04T10:55:15;1.30;;;0.40;;
22138;SDS011;25815;52.582;13.408;2023-02-04T10:57:42;2.97;;;0.57;;
22138;SDS011;25815;52.582;13.408;2023-02-04T11:00:19;2.85;;;0.60;;
22138;SDS011;25815;52.582;13.408;2023-02-04T11:02:52;4.10;;;0.50;;
22138;SDS011;25815;52.582;13.408;2023-02-04T11:05:20;1.50;;;0.60;;
22138;SDS011;25815;52.582;13.408;2023-02-04T11:07:47;1.85;;;0.50;;
22138;SDS011;25815;52.582;13.408;2023-02-04T11:10:17;1.38;;;0.57;;
22138;SDS011;25815;52.582;13.408;2023-02-04T11:12:45;0.98;;;0.40;;
22138;SDS011;25815;52.582;13.408;2023-02-04T11:18:05;2.42;;;0.60;;
22138;SDS011;25815;52.582;13.408;2023-02-04T11:20:32;3.80;;;0.75;;
22138;SDS011;25815;52.582;13.408;2023-02-04T11:25:44;2.17;;;0.40;;
22138;SDS011;25815;52.582;13.408;2023-02-04T11:28:13;1.70;;;0.40;;
22138;SDS011;25815;52.582;13.408;2023-02-04T11:30:39;1.77;;;0.40;;
22138;SDS011;25815;52.582;13.408;2023-02-04T11:33:19;1.67;;;0.40;;
22138;SDS011;25815;52.582;13.408;2023-02-04T11:36:19;0.85;;;0.28;;
22138;SDS011;25815;52.582;13.408;2023-02-04T11:38:38;1.40;;;0.40;;
22138;SDS011;25815;52.582;13.408;2023-02-04T11:41:04;2.35;;;0.40;;
22138;SDS011;25815;52.582;13.408;2023-02-04T11:43:33;1.65;;;0.30;;
22138;SDS011;25815;52.582;13.408;2023-02-04T11:46:00;2.70;;;0.63;;
22138;SDS011;25815;52.582;13.408;2023-02-04T11:48:27;4.63;;;0.30;;
22138;SDS011;25815;52.582;13.408;2023-02-04T11:50:57;1.55;;;0.50;;
22138;SDS011;25815;52.582;13.408;2023-02-04T11:53:23;1.73;;;0.45;;
22138;SDS011;25815;52.582;13.408;2023-02-04T11:55:49;1.35;;;0.40;;
22138;SDS011;25815;52.582;13.408;2023-02-04T11:58:16;0.50;;;0.25;;
22138;SDS011;25815;52.582;13.408;2023-02-04T12:00:43;0.65;;;0.30;;
22138;SDS011;25815;52.582;13.408;2023-02-04T12:03:44;2.17;;;0.35;;
22138;SDS011;25815;52.582;13.408;2023-02-04T12:06:02;1.98;;;0.40;;
22138;SDS011;25815;52.582;13.408;2023-02-04T12:08:32;1.95;;;0.50;;
22138;SDS011;25815;52.582;13.408;2023-02-04T12:11:03;1.55;;;0.30;;
22138;SDS011;25815;52.582;13.408;2023-02-04T12:13:30;2.25;;;0.50;;
22138;SDS011;25815;52.582;13.408;2023-02-04T12:15:57;0.30;;;0.30;;
22138;SDS011;25815;52.582;13.408;2023-02-04T12:18:24;1.17;;;0.40;;
22138;SDS011;25815;52.582;13.408;2023-02-04T12:20:54;3.78;;;0.50;;
22138;SDS011;25815;52.582;13.408;2023-02-04T12:23:20;1.90;;;0.32;;
22138;SDS011;25815;52.582;13.408;2023-02-04T12:25:46;1.30;;;0.40;;
22138;SDS011;25815;52.582;13.408;2023-02-04T12:28:13;1.02;;;0.47;;
22138;SDS011;25815;52.582;13.408;2023-02-04T12:30:39;1.35;;;0.40;;
22138;SDS011;25815;52.582;13.408;2023-02-04T12:33:05;1.17;;;0.43;;
22138;SDS011;25815;52.582;13.408;2023-02-04T12:35:31;1.98;;;0.45;;
22138;SDS011;25815;52.582;13.408;2023-02-04T12:37:57;1.13;;;0.70;;
22138;SDS011;25815;52.582;13.408;2023-02-04T12:40:23;0.88;;;0.32;;
22138;SDS011;25815;52.582;13.408;2023-02-04T12:42:49;1.92;;;0.73;;
22138;SDS011;25815;52.582;13.408;2023-02-04T12:45:15;1.05;;;0.60;;
22138;SDS011;25815;52.582;13.408;2023-02-04T12:47:41;2.10;;;0.80;;
22138;SDS011;25815;52.582;13.408;2023-02-04T12:50:08;0.80;;;0.50;;
22138;SDS011;25815;52.582;13.408;2023-02-04T12:52:34;0.93;;;0.30;;
22138;SDS011;25815;52.582;13.408;2023-02-04T12:55:03;3.63;;;0.50;;
22138;SDS011;25815;52.582;13.408;2023-02-04T12:57:30;2.13;;;0.60;;
22138;SDS011;25815;52.582;13.408;2023-02-04T12:59:56;2.78;;;0.30;;
22138;SDS011;25815;52.582;13.408;2023-02-04T13:02:23;3.70;;;0.77;;
22138;SDS011;25815;52.582;13.408;2023-02-04T13:04:49;1.00;;;0.43;;
22138;SDS011;25815;52.582;13.408;2023-02-04T13:07:15;1.67;;;0.40;;
22138;SDS011;25815;52.582;13.408;2023-02-04T13:09:41;2.08;;;0.52;;
22138;SDS011;25815;52.582;13.408;2023-02-04T13:12:09;0.93;;;0.40;;
22138;SDS011;25815;52.582;13.408;2023-02-04T13:14:37;2.78;;;0.60;;
22138;SDS011;25815;52.582;13.408;2023-02-04T13:17:03;1.13;;;0.40;;
22138;SDS011;25815;52.582;13.408;2023-02-04T13:19:29;1.00;;;0.55;;
22138;SDS011;25815;52.582;13.408;2023-02-04T13:21:56;2.03;;;0.55;;
22138;SDS011;25815;52.582;13.408;2023-02-04T13:24:22;1.30;;;0.60;;
22138;SDS011;25815;52.582;13.408;2023-02-04T13:26:48;1.02;;;0.63;;
22138;SDS011;25815;52.582;13.408;2023-02-04T13:29:14;1.20;;;0.40;;
22138;SDS011;25815;52.582;13.408;2023-02-04T13:31:40;0.98;;;0.30;;
22138;SDS011;25815;52.582;13.408;2023-02-04T13:34:06;1.25;;;0.50;;
22138;SDS011;25815;52.582;13.408;2023-02-04T13:36:32;1.55;;;0.32;;
22138;SDS011;25815;52.582;13.408;2023-02-04T13:38:58;0.45;;;0.30;;
22138;SDS011;25815;52.582;13.408;2023-02-04T13:41:25;0.60;;;0.30;;
22138;SDS011;25815;52.582;13.408;2023-02-04T13:43:50;0.70;;;0.20;;
22138;SDS011;25815;52.582;13.408;2023-02-04T13:46:16;0.80;;;0.50;;
22138;SDS011;25815;52.582;13.408;2023-02-04T13:48:42;2.03;;;0.40;;
22138;SDS011;25815;52.582;13.408;2023-02-04T13:51:08;0.52;;;0.20;;
22138;SDS011;25815;52.582;13.408;2023-02-04T13:53:34;1.45;;;0.30;;
22138;SDS011;25815;52.582;13.408;2023-02-04T13:56:00;0.73;;;0.47;;
22138;SDS011;25815;52.582;13.408;2023-02-04T13:58:26;0.47;;;0.20;;
22138;SDS011;25815;52.582;13.408;2023-02-04T14:00:52;1.15;;;0.30;;
22138;SDS011;25815;52.582;13.408;2023-02-04T14:03:22;1.20;;;0.40;;
22138;SDS011;25815;52.582;13.408;2023-02-04T14:05:48;0.82;;;0.32;;
22138;SDS011;25815;52.582;13.408;2023-02-04T14:08:14;1.70;;;0.50;;
22138;SDS011;25815;52.582;13.408;2023-02-04T14:10:40;1.83;;;0.30;;
22138;SDS011;25815;52.582;13.408;2023-02-04T14:13:06;1.15;;;0.50;;
22138;SDS011;25815;52.582;13.408;2023-02-04T14:15:32;1.30;;;0.50;;
22138;SDS011;25815;52.582;13.408;2023-02-04T14:18:07;1.35;;;0.65;;
22138;SDS011;25815;52.582;13.408;2023-02-04T14:20:33;3.65;;;0.70;;
22138;SDS011;25815;52.582;13.408;2023-02-04T14:23:00;2.22;;;0.70;;
22138;SDS011;25815;52.582;13.408;2023-02-04T14:25:26;2.67;;;1.10;;
22138;SDS011;25815;52.582;13.408;2023-02-04T14:27:52;0.95;;;0.50;;
22138;SDS011;25815;52.582;13.408;2023-02-04T14:30:24;1.17;;;0.60;;
22138;SDS011;25815;52.582;13.408;2023-02-04T14:32:50;2.03;;;0.50;;
22138;SDS011;25815;52.582;13.408;2023-02-04T14:35:16;1.83;;;0.57;;
22138;SDS011;25815;52.582;13.408;2023-02-04T14:37:42;1.63;;;0.90;;